sensor_id;sensor_type;location;lat;lon;timestamp;P1;durP1;ratioP1;P2;durP2;ratioP2
7013;SDS011;3547;50.774;12.918;2022-08-23T04:00:56;3.17;;;2.85;;
7013;SDS011;3547;50.774;12.918;2022-08-23T04:03:58;3.05;;;2.75;;
7013;SDS011;3547;50.774;12.918;2022-08-23T04:10:24;6.82;;;2.85;;
7013;SDS011;3547;50.774;12.918;2022-08-23T04:13:10;3.67;;;3.28;;
7013;SDS011;3547;50.774;12.918;2022-08-23T04:15:39;5.07;;;3.42;;
7013;SDS011;3547;50.774;12.918;2022-08-23T04:18:28;6.75;;;3.20;;
7013;SDS011;3547;50.774;12.918;2022-08-23T04:21:25;3.10;;;2.75;;
7013;SDS011;3547;50.774;12.918;2022-08-23T04:26:56;3.78;;;2.58;;
7013;SDS011;3547;50.774;12.918;2022-08-23T05:14:08;6.93;;;3.80;;
7013;SDS011;3547;50.774;12.918;2022-08-23T05:16:34;5.90;;;3.45;;
7013;SDS011;3547;50.774;12.918;2022-08-23T05:19:00;5.10;;;3.53;;
7013;SDS011;3547;50.774;12.918;2022-08-23T12:15:01;2.60;;;2.00;;
7013;SDS011;3547;50.774;12.918;2022-08-23T13:45:43;2.55;;;2.00;;
7013;SDS011;3547;50.774;12.918;2022-08-23T14:30:57;2.28;;;2.05;;
7013;SDS011;3547;50.774;12.918;2022-08-23T14:33:50;1.95;;;1.75;;
7013;SDS011;3547;50.774;12.918;2022-08-23T14:36:18;2.60;;;2.05;;
7013;SDS011;3547;50.774;12.918;2022-08-23T14:43:57;1.92;;;1.73;;
7013;SDS011;3547;50.774;12.918;2022-08-23T14:46:33;3.20;;;2.38;;
7013;SDS011;3547;50.774;12.918;2022-08-23T14:49:03;3.85;;;1.80;;
7013;SDS011;3547;50.774;12.918;2022-08-23T14:54:55;1.75;;;1.65;;
7013;SDS011;3547;50.774;12.918;2022-08-23T14:57:24;2.60;;;2.10;;
7013;SDS011;3547;50.774;12.918;2022-08-23T14:59:54;3.72;;;1.85;;
7013;SDS011;3547;50.774;12.918;2022-08-23T15:02:22;3.42;;;1.92;;
7013;SDS011;3547;50.774;12.918;2022-08-23T15:04:53;4.22;;;1.85;;
7013;SDS011;3547;50.774;12.918;2022-08-23T15:07:23;2.20;;;2.00;;
7013;SDS011;3547;50.774;12.918;2022-08-23T15:10:04;4.68;;;2.25;;
7013;SDS011;3547;50.774;12.918;2022-08-23T15:12:31;2.47;;;2.10;;
7013;SDS011;3547;50.774;12.918;2022-08-23T15:15:04;2.80;;;1.92;;
7013;SDS011;3547;50.774;12.918;2022-08-23T15:17:58;1.70;;;1.60;;
7013;SDS011;3547;50.774;12.918;2022-08-23T15:21:06;1.90;;;1.70;;
7013;SDS011;3547;50.774;12.918;2022-08-23T15:26:52;2.17;;;1.70;;
7013;SDS011;3547;50.774;12.918;2022-08-23T15:29:39;2.40;;;1.83;;
7013;SDS011;3547;50.774;12.918;2022-08-23T15:32:11;1.90;;;1.70;;
7013;SDS011;3547;50.774;12.918;2022-08-23T15:34:41;2.22;;;1.70;;
7013;SDS011;3547;50.774;12.918;2022-08-23T15:37:13;4.05;;;1.70;;
7013;SDS011;3547;50.774;12.918;2022-08-23T15:39:44;4.45;;;1.58;;
7013;SDS011;3547;50.774;12.918;2022-08-23T15:42:16;4.07;;;1.70;;
7013;SDS011;3547;50.774;12.918;2022-08-23T15:44:48;1.90;;;1.70;;
7013;SDS011;3547;50.774;12.918;2022-08-23T15:47:18;2.45;;;1.95;;
7013;SDS011;3547;50.774;12.918;2022-08-23T15:49:59;2.15;;;1.70;;
7013;SDS011;3547;50.774;12.918;2022-08-23T15:52:28;3.10;;;1.55;;
7013;SDS011;3547;50.774;12.918;2022-08-23T15:54:57;1.52;;;1.40;;
7013;SDS011;3547;50.774;12.918;2022-08-23T15:57:24;1.75;;;1.55;;
7013;SDS011;3547;50.774;12.918;2022-08-23T15:59:53;2.03;;;1.63;;
7013;SDS011;3547;50.774;12.918;2022-08-23T16:02:20;1.83;;;1.33;;
7013;SDS011;3547;50.774;12.918;2022-08-23T16:05:00;7.53;;;2.25;;
7013;SDS011;3547;50.774;12.918;2022-08-23T16:07:40;2.10;;;1.77;;
7013;SDS011;3547;50.774;12.918;2022-08-23T16:10:10;2.78;;;1.50;;
7013;SDS011;3547;50.774;12.918;2022-08-23T16:12:39;1.42;;;1.33;;
7013;SDS011;3547;50.774;12.918;2022-08-23T16:15:06;3.17;;;1.60;;
7013;SDS011;3547;50.774;12.918;2022-08-23T16:17:33;1.70;;;1.50;;
7013;SDS011;3547;50.774;12.918;2022-08-23T16:20:01;3.55;;;1.70;;
7013;SDS011;3547;50.774;12.918;2022-08-23T16:22:30;4.07;;;1.92;;
7013;SDS011;3547;50.774;12.918;2022-08-23T16:24:57;2.95;;;1.85;;
7013;SDS011;3547;50.774;12.918;2022-08-23T16:27:25;5.40;;;1.83;;
7013;SDS011;3547;50.774;12.918;2022-08-23T16:29:52;3.58;;;1.88;;
7013;SDS011;3547;50.774;12.918;2022-08-23T16:32:18;2.75;;;1.50;;
7013;SDS011;3547;50.774;12.918;2022-08-23T16:34:44;3.20;;;2.15;;
7013;SDS011;3547;50.774;12.918;2022-08-23T16:37:11;3.63;;;1.98;;
7013;SDS011;3547;50.774;12.918;2022-08-23T16:39:37;9.43;;;1.80;;
7013;SDS011;3547;50.774;12.918;2022-08-23T16:42:06;5.93;;;1.88;;
7013;SDS011;3547;50.774;12.918;2022-08-23T16:44:32;4.50;;;1.80;;
7013;SDS011;3547;50.774;12.918;2022-08-23T16:47:03;2.55;;;1.67;;
7013;SDS011;3547;50.774;12.918;2022-08-23T16:49:35;1.92;;;1.73;;
7013;SDS011;3547;50.774;12.918;2022-08-23T16:52:01;2.20;;;1.60;;
7013;SDS011;3547;50.774;12.918;2022-08-23T16:54:29;2.13;;;1.92;;
7013;SDS011;3547;50.774;12.918;2022-08-23T16:56:55;5.18;;;2.00;;
7013;SDS011;3547;50.774;12.918;2022-08-23T16:59:22;2.10;;;1.88;;
7013;SDS011;3547;50.774;12.918;2022-08-23T17:01:58;3.70;;;1.80;;
7013;SDS011;3547;50.774;12.918;2022-08-23T17:04:43;6.55;;;1.90;;
7013;SDS011;3547;50.774;12.918;2022-08-23T17:07:09;2.15;;;1.80;;
7013;SDS011;3547;50.774;12.918;2022-08-23T17:09:41;3.03;;;1.83;;
7013;SDS011;3547;50.774;12.918;2022-08-23T17:12:13;3.67;;;1.90;;
7013;SDS011;3547;50.774;12.918;2022-08-23T17:14:41;2.75;;;1.88;;
7013;SDS011;3547;50.774;12.918;2022-08-23T17:17:12;2.20;;;2.00;;
7013;SDS011;3547;50.774;12.918;2022-08-23T17:19:39;1.80;;;1.70;;
7013;SDS011;3547;50.774;12.918;2022-08-23T17:22:06;3.88;;;2.30;;
7013;SDS011;3547;50.774;12.918;2022-08-23T17:24:32;2.15;;;2.00;;
7013;SDS011;3547;50.774;12.918;2022-08-23T17:26:58;6.63;;;2.17;;
7013;SDS011;3547;50.774;12.918;2022-08-23T17:29:25;2.03;;;1.85;;
7013;SDS011;3547;50.774;12.918;2022-08-23T17:31:52;2.78;;;1.75;;
7013;SDS011;3547;50.774;12.918;2022-08-23T17:34:18;3.17;;;2.50;;
7013;SDS011;3547;50.774;12.918;2022-08-23T17:39:21;3.10;;;2.05;;
7013;SDS011;3547;50.774;12.918;2022-08-23T17:41:56;3.72;;;2.33;;
7013;SDS011;3547;50.774;12.918;2022-08-23T17:44:29;1.92;;;1.75;;
7013;SDS011;3547;50.774;12.918;2022-08-23T17:46:58;3.13;;;2.25;;
7013;SDS011;3547;50.774;12.918;2022-08-23T17:59:25;3.08;;;2.28;;
7013;SDS011;3547;50.774;12.918;2022-08-23T19:13:31;2.05;;;1.95;;
7013;SDS011;3547;50.774;12.918;2022-08-23T19:15:58;4.97;;;2.60;;
7013;SDS011;3547;50.774;12.918;2022-08-23T19:18:28;2.70;;;2.50;;
7013;SDS011;3547;50.774;12.918;2022-08-23T19:21:06;3.47;;;2.53;;
7013;SDS011;3547;50.774;12.918;2022-08-23T19:23:36;2.53;;;2.33;;
7013;SDS011;3547;50.774;12.918;2022-08-23T19:29:24;2.65;;;2.45;;
7013;SDS011;3547;50.774;12.918;2022-08-23T19:31:54;3.50;;;2.53;;
7013;SDS011;3547;50.774;12.918;2022-08-23T19:34:20;2.42;;;2.22;;
7013;SDS011;3547;50.774;12.918;2022-08-23T19:36:47;2.55;;;2.35;;
7013;SDS011;3547;50.774;12.918;2022-08-23T19:39:15;4.10;;;2.58;;
7013;SDS011;3547;50.774;12.918;2022-08-23T19:41:44;2.92;;;2.60;;
7013;SDS011;3547;50.774;12.918;2022-08-23T19:44:14;4.50;;;2.58;;
7013;SDS011;3547;50.774;12.918;2022-08-23T19:46:41;4.88;;;2.70;;
7013;SDS011;3547;50.774;12.918;2022-08-23T19:49:08;3.10;;;2.47;;
7013;SDS011;3547;50.774;12.918;2022-08-23T19:51:36;2.75;;;2.55;;
7013;SDS011;3547;50.774;12.918;2022-08-23T19:54:04;4.22;;;2.88;;
7013;SDS011;3547;50.774;12.918;2022-08-23T19:56:35;2.47;;;2.28;;
7013;SDS011;3547;50.774;12.918;2022-08-23T19:59:08;3.17;;;2.55;;
7013;SDS011;3547;50.774;12.918;2022-08-23T20:01:37;2.80;;;2.25;;
7013;SDS011;3547;50.774;12.918;2022-08-23T20:04:07;2.53;;;2.33;;
7013;SDS011;3547;50.774;12.918;2022-08-23T20:06:39;6.60;;;2.60;;
7013;SDS011;3547;50.774;12.918;2022-08-23T20:09:15;3.05;;;2.30;;
7013;SDS011;3547;50.774;12.918;2022-08-23T20:15:53;4.25;;;2.47;;
7013;SDS011;3547;50.774;12.918;2022-08-23T20:19:25;4.28;;;2.80;;
7013;SDS011;3547;50.774;12.918;2022-08-23T20:22:09;3.17;;;2.75;;
7013;SDS011;3547;50.774;12.918;2022-08-23T20:25:10;4.57;;;2.58;;
7013;SDS011;3547;50.774;12.918;2022-08-23T20:28:19;6.22;;;2.75;;
7013;SDS011;3547;50.774;12.918;2022-08-23T20:30:56;7.70;;;2.65;;
7013;SDS011;3547;50.774;12.918;2022-08-23T20:33:26;4.90;;;2.50;;
7013;SDS011;3547;50.774;12.918;2022-08-23T20:35:57;5.38;;;2.33;;
7013;SDS011;3547;50.774;12.918;2022-08-23T20:38:32;3.00;;;2.70;;
7013;SDS011;3547;50.774;12.918;2022-08-23T20:41:25;5.22;;;2.80;;
7013;SDS011;3547;50.774;12.918;2022-08-23T21:36:44;5.90;;;2.60;;
7013;SDS011;3547;50.774;12.918;2022-08-23T21:39:10;2.88;;;2.67;;
7013;SDS011;3547;50.774;12.918;2022-08-23T21:41:41;3.00;;;2.70;;
7013;SDS011;3547;50.774;12.918;2022-08-23T21:44:14;3.33;;;2.95;;
7013;SDS011;3547;50.774;12.918;2022-08-23T21:46:45;3.22;;;2.90;;
7013;SDS011;3547;50.774;12.918;2022-08-23T21:49:13;3.65;;;2.80;;
7013;SDS011;3547;50.774;12.918;2022-08-23T21:51:49;3.70;;;3.03;;
7013;SDS011;3547;50.774;12.918;2022-08-23T21:54:18;4.82;;;3.28;;
7013;SDS011;3547;50.774;12.918;2022-08-23T21:56:46;5.45;;;3.05;;
7013;SDS011;3547;50.774;12.918;2022-08-23T21:59:15;4.10;;;3.20;;
7013;SDS011;3547;50.774;12.918;2022-08-23T22:01:43;4.88;;;2.80;;
7013;SDS011;3547;50.774;12.918;2022-08-23T22:04:13;3.45;;;2.95;;
7013;SDS011;3547;50.774;12.918;2022-08-23T22:06:41;4.07;;;2.70;;
7013;SDS011;3547;50.774;12.918;2022-08-23T22:09:17;5.10;;;2.78;;
7013;SDS011;3547;50.774;12.918;2022-08-23T22:12:04;3.63;;;2.70;;
7013;SDS011;3547;50.774;12.918;2022-08-23T22:14:35;2.95;;;2.75;;
7013;SDS011;3547;50.774;12.918;2022-08-23T22:17:06;2.88;;;2.63;;
7013;SDS011;3547;50.774;12.918;2022-08-23T22:19:40;4.97;;;3.30;;
7013;SDS011;3547;50.774;12.918;2022-08-23T22:22:08;4.32;;;2.70;;
7013;SDS011;3547;50.774;12.918;2022-08-23T22:24:34;2.80;;;2.42;;
7013;SDS011;3547;50.774;12.918;2022-08-23T22:27:01;3.28;;;2.50;;
7013;SDS011;3547;50.774;12.918;2022-08-23T22:29:28;3.95;;;2.95;;
7013;SDS011;3547;50.774;12.918;2022-08-23T22:31:54;7.03;;;2.72;;
7013;SDS011;3547;50.774;12.918;2022-08-23T22:34:20;3.33;;;2.42;;
7013;SDS011;3547;50.774;12.918;2022-08-23T22:36:47;4.85;;;2.80;;
7013;SDS011;3547;50.774;12.918;2022-08-23T22:39:14;2.97;;;2.70;;
7013;SDS011;3547;50.774;12.918;2022-08-23T22:41:40;3.35;;;3.05;;
7013;SDS011;3547;50.774;12.918;2022-08-23T22:44:07;3.58;;;3.03;;
7013;SDS011;3547;50.774;12.918;2022-08-23T22:46:36;4.50;;;2.75;;
7013;SDS011;3547;50.774;12.918;2022-08-23T22:49:03;3.20;;;2.90;;
7013;SDS011;3547;50.774;12.918;2022-08-23T22:51:33;2.90;;;2.70;;
7013;SDS011;3547;50.774;12.918;2022-08-23T22:54:10;3.15;;;2.83;;
7013;SDS011;3547;50.774;12.918;2022-08-23T22:56:41;4.05;;;3.13;;
7013;SDS011;3547;50.774;12.918;2022-08-23T22:59:14;3.10;;;2.70;;
7013;SDS011;3547;50.774;12.918;2022-08-23T23:01:43;3.55;;;2.80;;
7013;SDS011;3547;50.774;12.918;2022-08-23T23:04:12;3.30;;;2.97;;
7013;SDS011;3547;50.774;12.918;2022-08-23T23:06:41;3.72;;;3.00;;
7013;SDS011;3547;50.774;12.918;2022-08-23T23:09:08;5.82;;;3.58;;
7013;SDS011;3547;50.774;12.918;2022-08-23T23:11:37;5.38;;;3.30;;
7013;SDS011;3547;50.774;12.918;2022-08-23T23:14:04;3.17;;;2.88;;
7013;SDS011;3547;50.774;12.918;2022-08-23T23:16:34;3.38;;;3.08;;
7013;SDS011;3547;50.774;12.918;2022-08-23T23:19:07;4.28;;;2.95;;
7013;SDS011;3547;50.774;12.918;2022-08-23T23:21:55;3.83;;;2.88;;
7013;SDS011;3547;50.774;12.918;2022-08-23T23:24:36;3.30;;;3.00;;
7013;SDS011;3547;50.774;12.918;2022-08-23T23:27:04;3.95;;;3.50;;
7013;SDS011;3547;50.774;12.918;2022-08-23T23:29:30;3.50;;;3.20;;
7013;SDS011;3547;50.774;12.918;2022-08-23T23:31:59;4.85;;;3.60;;
7013;SDS011;3547;50.774;12.918;2022-08-23T23:34:26;4.60;;;3.00;;
7013;SDS011;3547;50.774;12.918;2022-08-23T23:36:53;3.88;;;3.38;;
7013;SDS011;3547;50.774;12.918;2022-08-23T23:39:20;6.05;;;3.15;;
7013;SDS011;3547;50.774;12.918;2022-08-23T23:41:47;3.70;;;3.33;;
7013;SDS011;3547;50.774;12.918;2022-08-23T23:44:13;7.10;;;3.22;;
7013;SDS011;3547;50.774;12.918;2022-08-23T23:46:39;3.72;;;3.42;;
7013;SDS011;3547;50.774;12.918;2022-08-23T23:49:06;4.38;;;3.30;;
7013;SDS011;3547;50.774;12.918;2022-08-23T23:51:32;4.38;;;3.40;;
7013;SDS011;3547;50.774;12.918;2022-08-23T23:53:59;3.55;;;2.83;;
7013;SDS011;3547;50.774;12.918;2022-08-23T23:56:26;3.47;;;3.17;;
7013;SDS011;3547;50.774;12.918;2022-08-23T23:58:54;3.72;;;3.33;;
